createdAt,value
2022-08-20T00:00:22.877Z,100.00
2022-08-20T00:02:52.683Z,100.00
2022-08-20T00:05:24.609Z,100.00
2022-08-20T00:07:52.633Z,100.00
2022-08-20T00:10:20.895Z,100.00
2022-08-20T00:12:50.093Z,100.00
2022-08-20T00:15:21.712Z,100.00
2022-08-20T00:17:50.582Z,100.00
2022-08-20T00:20:19.977Z,100.00
2022-08-20T00:22:48.104Z,100.00
2022-08-20T00:25:16.513Z,100.00
2022-08-20T00:27:44.441Z,100.00
2022-08-20T00:30:14.136Z,100.00
2022-08-20T00:32:48.277Z,100.00
2022-08-20T00:35:16.868Z,100.00
2022-08-20T00:37:44.880Z,100.00
2022-08-20T00:40:22.652Z,100.00
2022-08-20T00:42:55.357Z,100.00
2022-08-20T00:45:22.980Z,100.00
2022-08-20T00:47:51.988Z,100.00
2022-08-20T00:50:24.325Z,100.00
2022-08-20T00:52:53.830Z,100.00
2022-08-20T00:55:29.630Z,100.00
2022-08-20T00:58:03.893Z,100.00
2022-08-20T01:00:34.148Z,100.00
2022-08-20T01:03:03.757Z,100.00
2022-08-20T01:05:31.365Z,100.00
2022-08-20T01:07:59.362Z,100.00
2022-08-20T01:10:30.271Z,100.00
2022-08-20T01:13:00.236Z,100.00
2022-08-20T01:15:31.721Z,100.00
2022-08-20T01:18:02.005Z,100.00
2022-08-20T01:20:34.716Z,100.00
2022-08-20T01:23:26.608Z,100.00
2022-08-20T01:26:00.274Z,100.00
2022-08-20T01:28:33.577Z,100.00
2022-08-20T01:31:01.153Z,100.00
2022-08-20T01:33:28.919Z,100.00
2022-08-20T01:35:56.641Z,100.00
2022-08-20T01:38:24.609Z,100.00
2022-08-20T01:41:08.552Z,100.00
2022-08-20T01:43:37.092Z,100.00
2022-08-20T01:46:06.020Z,100.00
2022-08-20T01:48:33.605Z,100.00
2022-08-20T01:51:07.755Z,100.00
2022-08-20T01:53:38.445Z,100.00
2022-08-20T01:56:10.125Z,100.00
2022-08-20T01:58:41.257Z,100.00
2022-08-20T02:01:09.465Z,100.00
2022-08-20T02:03:40.747Z,100.00
2022-08-20T02:06:11.668Z,100.00
2022-08-20T02:08:39.296Z,100.00
2022-08-20T02:11:08.889Z,100.00
2022-08-20T02:13:36.849Z,100.00
2022-08-20T02:16:05.989Z,100.00
2022-08-20T02:18:33.653Z,100.00
2022-08-20T02:21:01.495Z,100.00
2022-08-20T02:23:29.150Z,100.00
2022-08-20T02:25:56.833Z,100.00
2022-08-20T02:28:25.733Z,100.00
2022-08-20T02:30:55.240Z,100.00
2022-08-20T02:33:24.614Z,100.00
2022-08-20T02:35:53.725Z,100.00
2022-08-20T02:38:21.432Z,100.00
2022-08-20T02:40:49.917Z,100.00
2022-08-20T02:43:20.072Z,100.00
2022-08-20T02:45:49.006Z,100.00
2022-08-20T02:48:22.739Z,100.00
2022-08-20T02:50:53.221Z,100.00
2022-08-20T02:53:21.421Z,100.00
2022-08-20T02:55:48.996Z,100.00
2022-08-20T02:58:16.872Z,100.00
2022-08-20T03:00:44.836Z,100.00
2022-08-20T03:03:14.091Z,100.00
2022-08-20T03:05:43.921Z,100.00
2022-08-20T03:08:13.434Z,100.00
2022-08-20T03:10:42.751Z,100.00
2022-08-20T03:13:12.503Z,100.00
2022-08-20T03:15:43.005Z,100.00
2022-08-20T03:18:11.422Z,100.00
2022-08-20T03:20:42.057Z,100.00
2022-08-20T03:23:09.773Z,100.00
2022-08-20T03:25:37.469Z,100.00
2022-08-20T03:28:05.728Z,100.00
2022-08-20T03:30:33.600Z,100.00
2022-08-20T03:33:01.564Z,100.00
2022-08-20T03:35:32.949Z,100.00
2022-08-20T03:38:02.342Z,100.00
2022-08-20T03:40:32.639Z,100.00
2022-08-20T03:43:01.152Z,100.00
2022-08-20T03:45:29.787Z,100.00
2022-08-20T03:47:58.668Z,100.00
2022-08-20T03:50:29.821Z,100.00
2022-08-20T03:52:59.493Z,100.00
2022-08-20T03:55:30.950Z,100.00
2022-08-20T03:58:02.924Z,100.00
2022-08-20T04:00:34.684Z,100.00
2022-08-20T04:03:02.316Z,100.00
2022-08-20T04:05:32.782Z,100.00
2022-08-20T04:08:03.414Z,100.00
2022-08-20T04:10:32.937Z,100.00
2022-08-20T04:13:00.613Z,100.00
2022-08-20T04:15:29.245Z,100.00
2022-08-20T04:17:56.950Z,100.00
2022-08-20T04:20:26.116Z,100.00
2022-08-20T04:22:59.157Z,100.00
2022-08-20T04:25:28.429Z,100.00
2022-08-20T04:28:00.174Z,100.00
2022-08-20T04:30:30.572Z,100.00
2022-08-20T04:32:59.497Z,100.00
2022-08-20T04:35:27.506Z,100.00
2022-08-20T04:38:06.404Z,100.00
2022-08-20T04:40:52.532Z,100.00
2022-08-20T04:43:23.054Z,100.00
2022-08-20T04:45:51.902Z,100.00
2022-08-20T04:48:20.472Z,100.00
2022-08-20T04:50:48.341Z,100.00
2022-08-20T04:53:22.711Z,100.00
2022-08-20T04:55:54.437Z,100.00
2022-08-20T04:58:27.272Z,100.00
2022-08-20T05:01:01.184Z,100.00
2022-08-20T05:03:29.691Z,100.00
2022-08-20T05:05:57.900Z,100.00
2022-08-20T05:08:26.808Z,100.00
2022-08-20T05:11:06.592Z,100.00
2022-08-20T05:13:45.134Z,100.00
2022-08-20T05:16:15.105Z,100.00
2022-08-20T05:18:43.231Z,100.00
2022-08-20T05:21:10.873Z,100.00
2022-08-20T05:23:43.174Z,100.00
2022-08-20T05:26:11.970Z,100.00
2022-08-20T05:28:57.087Z,100.00
2022-08-20T05:31:32.692Z,100.00
2022-08-20T05:34:01.236Z,100.00
2022-08-20T05:36:28.890Z,100.00
2022-08-20T05:38:56.470Z,100.00
2022-08-20T05:41:29.358Z,100.00
2022-08-20T05:43:59.389Z,100.00
2022-08-20T05:46:28.369Z,88.06
2022-08-20T05:48:56.139Z,85.30
2022-08-20T05:51:27.608Z,84.48
2022-08-20T05:53:55.300Z,84.08
2022-08-20T05:56:27.130Z,82.25
2022-08-20T05:58:54.970Z,77.31
2022-08-20T06:01:22.733Z,78.53
2022-08-20T06:04:09.284Z,73.56
2022-08-20T06:06:45.319Z,77.90
2022-08-20T06:09:15.043Z,72.67
2022-08-20T06:11:42.614Z,65.60
2022-08-20T06:14:10.241Z,64.37
2022-08-20T06:16:37.925Z,58.85
2022-08-20T06:19:11.295Z,58.13
2022-08-20T06:21:39.759Z,57.26
2022-08-20T06:24:07.872Z,54.08
2022-08-20T06:26:36.315Z,50.94
2022-08-20T06:29:05.878Z,54.87
2022-08-20T06:31:34.908Z,50.29
2022-08-20T06:34:02.772Z,53.69
2022-08-20T06:36:31.673Z,52.27
2022-08-20T06:38:59.255Z,50.28
2022-08-20T06:41:36.376Z,52.29
2022-08-20T06:44:05.278Z,50.67
2022-08-20T06:46:33.043Z,47.45
2022-08-20T06:49:00.818Z,45.82
2022-08-20T06:51:29.250Z,48.97
2022-08-20T06:53:58.713Z,48.34
2022-08-20T06:56:26.736Z,49.80
2022-08-20T06:58:54.281Z,46.18
2022-08-20T07:01:21.879Z,45.86
2022-08-20T07:03:55.755Z,47.90
2022-08-20T07:06:25.285Z,47.21
2022-08-20T07:08:53.052Z,48.16
2022-08-20T07:11:27.216Z,47.79
2022-08-20T07:13:56.465Z,47.98
2022-08-20T07:16:24.077Z,48.44
2022-08-20T07:18:51.773Z,49.11
2022-08-20T07:21:19.538Z,47.92
2022-08-20T07:23:49.341Z,49.48
2022-08-20T07:26:17.040Z,52.06
2022-08-20T07:28:46.353Z,53.11
2022-08-20T07:31:31.642Z,53.18
2022-08-20T07:34:02.788Z,54.44
2022-08-20T07:36:31.051Z,54.79
2022-08-20T07:38:59.761Z,57.09
2022-08-20T07:41:34.218Z,59.70
2022-08-20T07:44:03.404Z,60.59
2022-08-20T07:46:31.651Z,61.45
2022-08-20T07:48:59.873Z,62.64
2022-08-20T07:51:28.529Z,62.92
2022-08-20T07:53:58.118Z,63.33
2022-08-20T07:56:26.563Z,62.54
2022-08-20T07:58:59.227Z,61.51
2022-08-20T08:01:31.648Z,61.70
2022-08-20T08:04:00.702Z,62.24
2022-08-20T08:06:31.375Z,61.77
2022-08-20T08:09:03.937Z,62.91
2022-08-20T08:11:34.479Z,59.82
2022-08-20T08:14:03.478Z,58.01
2022-08-20T08:16:32.798Z,56.63
2022-08-20T08:19:01.900Z,54.30
2022-08-20T08:21:30.140Z,53.88
2022-08-20T08:23:58.228Z,53.55
2022-08-20T08:26:26.261Z,52.97
2022-08-20T08:28:53.848Z,52.15
2022-08-20T08:31:21.425Z,53.45
2022-08-20T08:33:50.351Z,51.35
2022-08-20T08:36:18.410Z,50.21
2022-08-20T08:38:47.074Z,50.12
2022-08-20T08:41:18.707Z,50.70
2022-08-20T08:43:48.793Z,50.16
2022-08-20T08:46:22.608Z,48.21
2022-08-20T08:48:55.633Z,48.90
2022-08-20T08:51:29.266Z,51.14
2022-08-20T08:53:59.589Z,51.00
2022-08-20T08:56:30.665Z,50.31
2022-08-20T08:59:02.763Z,50.25
2022-08-20T09:01:54.416Z,50.85
2022-08-20T09:04:23.696Z,52.67
2022-08-20T09:06:53.425Z,54.46
2022-08-20T09:09:25.650Z,53.60
2022-08-20T09:11:56.146Z,50.17
2022-08-20T09:14:25.318Z,49.46
2022-08-20T09:16:53.717Z,48.41
2022-08-20T09:19:22.811Z,47.00
2022-08-20T09:21:50.543Z,44.85
2022-08-20T09:24:18.393Z,44.79
2022-08-20T09:26:46.089Z,45.16
2022-08-20T09:29:13.856Z,43.05
2022-08-20T09:31:42.634Z,41.22
2022-08-20T09:34:10.417Z,43.75
2022-08-20T09:36:39.460Z,42.65
2022-08-20T09:39:07.059Z,43.00
2022-08-20T09:41:34.837Z,42.37
2022-08-20T09:44:02.900Z,41.37
2022-08-20T09:46:30.493Z,42.46
2022-08-20T09:48:58.408Z,42.07
2022-08-20T09:51:26.041Z,43.51
2022-08-20T09:53:55.877Z,40.36
2022-08-20T09:56:25.191Z,40.40
2022-08-20T09:58:56.523Z,41.17
2022-08-20T10:01:26.670Z,41.93
2022-08-20T10:03:54.353Z,40.49
2022-08-20T10:06:22.091Z,41.06
2022-08-20T10:08:50.491Z,41.37
2022-08-20T10:11:19.852Z,40.70
2022-08-20T10:13:48.213Z,41.29
2022-08-20T10:16:15.821Z,40.90
2022-08-20T10:18:43.410Z,40.85
2022-08-20T10:21:12.405Z,41.18
2022-08-20T10:23:40.086Z,42.42
2022-08-20T10:26:08.529Z,42.57
2022-08-20T10:28:37.896Z,41.94
2022-08-20T10:31:07.168Z,42.83
2022-08-20T10:33:35.756Z,42.75
2022-08-20T10:36:07.637Z,40.24
2022-08-20T10:38:35.225Z,39.07
2022-08-20T10:41:02.812Z,40.18
2022-08-20T10:43:30.563Z,42.73
2022-08-20T10:45:59.557Z,42.25
2022-08-20T10:48:27.596Z,43.00
2022-08-20T10:50:55.265Z,43.54
2022-08-20T10:53:22.905Z,42.06
2022-08-20T10:55:50.520Z,41.49
2022-08-20T10:58:18.986Z,41.04
2022-08-20T11:00:50.801Z,42.72
2022-08-20T11:03:20.120Z,38.00
2022-08-20T11:05:47.768Z,39.59
2022-08-20T11:08:15.395Z,39.79
2022-08-20T11:11:01.589Z,40.78
2022-08-20T11:13:29.185Z,39.77
2022-08-20T11:15:56.821Z,41.56
2022-08-20T11:18:25.906Z,39.29
2022-08-20T11:20:53.760Z,40.07
2022-08-20T11:23:21.340Z,41.44
2022-08-20T11:25:49.676Z,42.84
2022-08-20T11:28:17.343Z,41.43
2022-08-20T11:30:59.011Z,42.24
2022-08-20T11:33:28.080Z,43.14
2022-08-20T11:35:55.649Z,45.52
2022-08-20T11:38:23.266Z,45.14
2022-08-20T11:40:50.872Z,45.35
2022-08-20T11:43:18.696Z,44.48
2022-08-20T11:45:48.534Z,45.17
2022-08-20T11:48:16.771Z,44.85
2022-08-20T11:50:46.873Z,45.03
2022-08-20T11:53:14.922Z,45.64
2022-08-20T11:55:43.243Z,45.67
2022-08-20T11:58:11.503Z,44.13
2022-08-20T12:00:39.316Z,43.66
2022-08-20T12:03:10.265Z,44.56
2022-08-20T12:05:39.553Z,44.25
2022-08-20T12:08:09.533Z,43.77
2022-08-20T12:10:37.908Z,41.78
2022-08-20T12:13:06.220Z,40.73
2022-08-20T12:15:33.980Z,40.71
2022-08-20T12:18:02.126Z,41.80
2022-08-20T12:20:29.777Z,42.47
2022-08-20T12:22:58.901Z,42.92
2022-08-20T12:25:28.019Z,43.46
2022-08-20T12:27:55.695Z,42.87
2022-08-20T12:30:25.543Z,45.47
2022-08-20T12:32:53.520Z,45.32
2022-08-20T12:35:21.325Z,45.93
2022-08-20T12:37:48.981Z,47.12
2022-08-20T12:40:30.541Z,47.63
2022-08-20T12:43:01.840Z,47.12
2022-08-20T12:45:29.845Z,46.20
2022-08-20T12:48:03.035Z,44.81
2022-08-20T12:50:31.847Z,44.19
2022-08-20T12:53:00.445Z,44.58
2022-08-20T12:55:28.853Z,45.43
2022-08-20T12:57:59.238Z,47.54
2022-08-20T13:00:30.565Z,47.47
2022-08-20T13:03:01.531Z,46.23
2022-08-20T13:05:30.134Z,48.00
2022-08-20T13:07:58.458Z,47.28
2022-08-20T13:10:29.513Z,46.73
2022-08-20T13:12:57.907Z,48.03
2022-08-20T13:15:26.572Z,52.05
2022-08-20T13:17:57.636Z,51.92
2022-08-20T13:20:34.076Z,51.43
2022-08-20T13:23:02.840Z,51.01
2022-08-20T13:25:30.464Z,48.47
2022-08-20T13:27:59.157Z,51.22
2022-08-20T13:30:27.049Z,51.36
2022-08-20T13:32:56.360Z,51.59
2022-08-20T13:35:24.174Z,50.04
2022-08-20T13:37:51.891Z,50.21
2022-08-20T13:40:20.015Z,48.61
2022-08-20T13:42:47.673Z,48.36
2022-08-20T13:45:15.724Z,47.53
2022-08-20T13:47:44.409Z,47.27
2022-08-20T13:50:16.112Z,48.26
2022-08-20T13:52:44.470Z,48.56
2022-08-20T13:55:16.941Z,49.20
2022-08-20T13:57:45.396Z,49.63
2022-08-20T14:00:16.686Z,50.21
2022-08-20T14:02:45.271Z,50.91
2022-08-20T14:05:18.417Z,51.24
2022-08-20T14:07:48.019Z,51.97
2022-08-20T14:10:18.447Z,52.20
2022-08-20T14:12:48.167Z,53.71
2022-08-20T14:15:15.922Z,56.64
2022-08-20T14:17:50.287Z,54.09
2022-08-20T14:20:22.140Z,53.67
2022-08-20T14:22:49.756Z,53.11
2022-08-20T14:25:19.701Z,52.59
2022-08-20T14:27:47.378Z,53.36
2022-08-20T14:30:22.452Z,51.48
2022-08-20T14:32:50.152Z,52.73
2022-08-20T14:35:19.356Z,54.78
2022-08-20T14:37:49.416Z,54.90
2022-08-20T14:40:18.565Z,55.06
2022-08-20T14:42:51.630Z,52.77
2022-08-20T14:45:23.214Z,54.34
2022-08-20T14:47:54.175Z,53.40
2022-08-20T14:50:26.684Z,53.06
2022-08-20T14:52:54.970Z,53.62
2022-08-20T14:55:24.705Z,53.86
2022-08-20T14:57:52.423Z,55.66
2022-08-20T15:00:23.245Z,54.18
2022-08-20T15:02:50.913Z,55.57
2022-08-20T15:05:18.757Z,53.86
2022-08-20T15:07:51.789Z,53.55
2022-08-20T15:10:25.698Z,54.54
2022-08-20T15:12:53.364Z,54.61
2022-08-20T15:15:22.381Z,55.04
2022-08-20T15:17:53.256Z,54.42
2022-08-20T15:20:23.648Z,54.18
2022-08-20T15:22:52.669Z,52.66
2022-08-20T15:25:23.326Z,52.56
2022-08-20T15:27:51.553Z,51.75
2022-08-20T15:30:21.615Z,52.91
2022-08-20T15:32:54.587Z,54.64
2022-08-20T15:35:25.713Z,52.60
2022-08-20T15:37:56.927Z,52.13
2022-08-20T15:40:28.543Z,50.24
2022-08-20T15:42:56.481Z,51.97
2022-08-20T15:45:24.176Z,53.46
2022-08-20T15:47:55.374Z,52.73
2022-08-20T15:50:45.280Z,52.09
2022-08-20T15:53:18.769Z,50.61
2022-08-20T15:55:56.993Z,51.87
2022-08-20T15:58:32.426Z,50.66
2022-08-20T16:01:24.611Z,50.79
2022-08-20T16:04:10.033Z,50.89
2022-08-20T16:06:37.889Z,50.33
2022-08-20T16:09:28.772Z,50.89
2022-08-20T16:12:03.417Z,50.30
2022-08-20T16:14:37.661Z,53.26
2022-08-20T16:17:09.767Z,53.10
2022-08-20T16:19:51.249Z,54.02
2022-08-20T16:22:20.244Z,53.67
2022-08-20T16:24:49.797Z,54.78
2022-08-20T16:27:28.629Z,55.26
2022-08-20T16:30:02.603Z,57.25
2022-08-20T16:32:38.507Z,56.15
2022-08-20T16:35:26.288Z,57.75
2022-08-20T16:38:03.513Z,58.25
2022-08-20T16:40:39.132Z,57.84
2022-08-20T16:43:09.881Z,60.38
2022-08-20T16:45:50.132Z,59.72
2022-08-20T16:48:19.830Z,60.84
2022-08-20T16:51:02.528Z,60.02
2022-08-20T16:53:30.237Z,60.55
2022-08-20T16:55:59.180Z,59.42
2022-08-20T16:58:26.837Z,59.52
2022-08-20T17:01:07.344Z,60.64
2022-08-20T17:03:39.673Z,59.92
2022-08-20T17:06:17.108Z,59.36
2022-08-20T17:08:49.897Z,57.43
2022-08-20T17:11:25.152Z,57.83
2022-08-20T17:14:07.958Z,57.59
2022-08-20T17:16:40.054Z,57.27
2022-08-20T17:19:11.968Z,57.82
2022-08-20T17:21:40.730Z,57.41
2022-08-20T17:24:16.877Z,58.37
2022-08-20T17:26:49.237Z,59.03
2022-08-20T17:29:20.103Z,59.16
2022-08-20T17:31:51.305Z,59.50
2022-08-20T17:34:21.784Z,59.57
2022-08-20T17:36:53.842Z,59.53
2022-08-20T17:39:24.609Z,57.88
2022-08-20T17:41:56.059Z,58.99
2022-08-20T17:44:29.104Z,59.24
2022-08-20T17:46:58.376Z,60.16
2022-08-20T17:49:35.188Z,58.70
2022-08-20T17:52:10.641Z,61.22
2022-08-20T17:54:42.278Z,61.81
2022-08-20T17:57:14.480Z,60.98
2022-08-20T17:59:59.973Z,61.82
2022-08-20T18:02:30.736Z,62.55
2022-08-20T18:04:58.354Z,63.28
2022-08-20T18:07:31.824Z,63.99
2022-08-20T18:10:03.489Z,64.29
2022-08-20T18:12:40.960Z,65.42
2022-08-20T18:15:13.701Z,66.05
2022-08-20T18:18:01.622Z,67.49
2022-08-20T18:20:49.440Z,67.29
2022-08-20T18:23:21.649Z,67.06
2022-08-20T18:25:53.934Z,68.42
2022-08-20T18:28:27.693Z,67.64
2022-08-20T18:30:58.352Z,69.00
2022-08-20T18:33:29.509Z,70.86
2022-08-20T18:36:11.993Z,70.92
2022-08-20T18:38:42.159Z,71.75
2022-08-20T18:41:14.257Z,72.65
2022-08-20T18:43:44.188Z,71.57
2022-08-20T18:46:23.634Z,71.39
2022-08-20T18:48:54.281Z,70.53
2022-08-20T18:51:30.936Z,69.88
2022-08-20T18:53:59.190Z,70.19
2022-08-20T18:56:40.257Z,69.45
2022-08-20T18:59:15.869Z,69.87
2022-08-20T19:01:48.530Z,69.77
2022-08-20T19:04:29.754Z,70.11
2022-08-20T19:07:01.536Z,70.41
2022-08-20T19:10:01.361Z,70.01
2022-08-20T19:13:03.210Z,70.57
2022-08-20T19:15:34.389Z,70.98
2022-08-20T19:18:07.972Z,71.39
2022-08-20T19:20:38.605Z,71.40
2022-08-20T19:23:08.924Z,71.47
2022-08-20T19:25:41.652Z,71.66
2022-08-20T19:28:20.321Z,71.88
2022-08-20T19:30:50.184Z,72.03
2022-08-20T19:33:27.513Z,72.12
2022-08-20T19:36:08.178Z,72.12
2022-08-20T19:38:36.001Z,72.44
2022-08-20T19:41:11.234Z,72.82
2022-08-20T19:43:43.824Z,73.15
2022-08-20T19:46:16.230Z,73.19
2022-08-20T19:48:53.789Z,73.31
2022-08-20T19:51:28.518Z,73.89
2022-08-20T19:53:56.121Z,74.03
2022-08-20T19:56:25.929Z,74.63
2022-08-20T19:59:01.661Z,74.60
2022-08-20T20:01:30.717Z,74.92
2022-08-20T20:04:00.965Z,75.18
2022-08-20T20:06:29.444Z,75.74
2022-08-20T20:08:59.970Z,76.08
2022-08-20T20:11:33.763Z,76.62
2022-08-20T20:14:03.789Z,76.71
2022-08-20T20:16:33.929Z,76.98
2022-08-20T20:19:25.195Z,77.27
2022-08-20T20:21:52.821Z,77.25
2022-08-20T20:24:25.329Z,77.26
2022-08-20T20:26:53.998Z,77.64
2022-08-20T20:29:28.151Z,77.85
2022-08-20T20:32:00.072Z,78.02
2022-08-20T20:34:30.034Z,78.34
2022-08-20T20:37:09.580Z,78.69
2022-08-20T20:39:41.521Z,79.17
2022-08-20T20:42:12.736Z,79.71
2022-08-20T20:44:43.192Z,80.24
2022-08-20T20:47:21.492Z,80.58
2022-08-20T20:49:52.607Z,80.83
2022-08-20T20:52:23.317Z,81.10
2022-08-20T20:54:52.748Z,81.29
2022-08-20T20:57:37.757Z,81.67
2022-08-20T21:00:11.347Z,81.86
2022-08-20T21:02:40.501Z,81.91
2022-08-20T21:05:08.597Z,82.11
2022-08-20T21:07:44.865Z,82.44
2022-08-20T21:10:19.564Z,82.70
2022-08-20T21:12:50.547Z,82.65
2022-08-20T21:15:21.150Z,83.15
2022-08-20T21:17:50.056Z,83.55
2022-08-20T21:20:17.999Z,83.70
2022-08-20T21:22:45.643Z,83.96
2022-08-20T21:25:13.533Z,84.40
2022-08-20T21:27:44.965Z,84.74
2022-08-20T21:30:13.704Z,84.88
2022-08-20T21:32:41.322Z,84.89
2022-08-20T21:35:11.135Z,85.09
2022-08-20T21:37:38.889Z,85.58
2022-08-20T21:40:08.831Z,85.73
2022-08-20T21:42:37.240Z,85.99
2022-08-20T21:45:07.149Z,86.43
2022-08-20T21:47:34.748Z,86.65
2022-08-20T21:50:02.549Z,86.90
2022-08-20T21:52:31.699Z,87.71
2022-08-20T21:54:59.261Z,88.04
2022-08-20T21:57:29.689Z,88.67
2022-08-20T21:59:58.394Z,88.84
2022-08-20T22:02:27.009Z,89.05
2022-08-20T22:04:54.914Z,89.23
2022-08-20T22:07:22.836Z,89.55
2022-08-20T22:09:51.756Z,89.34
2022-08-20T22:12:22.797Z,89.41
2022-08-20T22:14:50.578Z,89.56
2022-08-20T22:17:18.177Z,89.82
2022-08-20T22:19:45.910Z,90.22
2022-08-20T22:22:14.536Z,90.37
2022-08-20T22:24:42.769Z,90.20
2022-08-20T22:27:11.648Z,90.55
2022-08-20T22:29:39.325Z,90.91
2022-08-20T22:32:07.426Z,90.88
2022-08-20T22:34:36.657Z,90.88
2022-08-20T22:37:05.240Z,91.10
2022-08-20T22:39:33.092Z,91.49
2022-08-20T22:42:00.809Z,91.74
2022-08-20T22:44:29.786Z,91.89
2022-08-20T22:47:02.160Z,92.38
2022-08-20T22:49:33.064Z,92.83
2022-08-20T22:52:01.308Z,93.02
2022-08-20T22:54:30.193Z,93.36
2022-08-20T22:56:57.817Z,93.24
2022-08-20T22:59:25.822Z,93.52
2022-08-20T23:01:55.922Z,94.19
2022-08-20T23:04:27.785Z,94.31
2022-08-20T23:06:56.231Z,94.44
2022-08-20T23:09:23.965Z,94.62
2022-08-20T23:11:52.731Z,94.53
2022-08-20T23:14:20.741Z,94.64
2022-08-20T23:16:52.685Z,94.59
2022-08-20T23:19:23.641Z,94.61
2022-08-20T23:21:52.418Z,94.86
2022-08-20T23:24:20.881Z,95.13
2022-08-20T23:26:53.285Z,95.29
2022-08-20T23:29:25.113Z,95.00
2022-08-20T23:31:54.349Z,95.39
2022-08-20T23:34:23.343Z,95.30
2022-08-20T23:36:52.346Z,95.82
2022-08-20T23:39:20.476Z,96.33
2022-08-20T23:41:48.302Z,96.76
2022-08-20T23:44:25.840Z,97.20
2022-08-20T23:46:56.449Z,97.28
2022-08-20T23:49:25.480Z,97.58
2022-08-20T23:51:53.085Z,98.41
2022-08-20T23:54:20.657Z,98.14
2022-08-20T23:56:48.440Z,98.08
2022-08-20T23:59:16.005Z,98.16
